EDT,Max TemperatureF,Mean TemperatureF,Min TemperatureF,Max Dew PointF,MeanDew PointF,Min DewpointF,Max Humidity, Mean Humidity, Min Humidity, Max Sea Level PressureIn, Mean Sea Level PressureIn, Min Sea Level PressureIn, Max VisibilityMiles, Mean VisibilityMiles, Min VisibilityMiles, Max Wind SpeedMPH, Mean Wind SpeedMPH, Max Gust SpeedMPH,PrecipitationIn, CloudCover, Events, WindDirDegrees
2013-3-1,32,30,27,29,23,19,85,74,63,30.04,29.97,29.88,10,10,5,12,7,15,0.01,8,Snow,338
2013-3-2,30,28,26,23,22,19,84,78,72,30.04,29.99,29.95,10,5,1,14,7,17,0.01,8,Snow,320
2013-3-3,26,23,19,22,18,13,88,75,62,30.09,30.02,29.98,10,6,1,15,6,21,T,8,Snow,308
2013-3-4,39,25,10,21,16,8,92,66,40,30.19,30.12,30.09,10,10,10,13,2,18,0.01,1,,249
2013-3-5,45,37,28,32,24,20,75,57,39,30.09,29.79,29.54,10,9,2,21,7,28,0.20,8,Rain-Snow,74
2013-3-6,40,36,31,32,30,28,100,85,70,30.18,29.81,29.53,10,6,1,15,7,20,0.16,7,Snow,59
2013-3-7,42,36,30,30,28,26,92,74,55,30.35,30.28,30.17,10,9,4,14,7,18,0.00,8,,306
2013-3-8,45,36,27,30,25,22,85,67,49,30.47,30.41,30.34,10,10,10,12,5,17,0.00,3,,352
2013-3-9,57,40,22,30,26,20,96,65,33,30.41,30.29,30.12,10,9,6,12,3,15,0.00,0,,122
2013-3-10,71,57,43,34,31,28,62,43,23,30.12,30.02,29.90,10,10,10,18,9,25,T,1,,162
2013-3-11,60,51,42,48,40,32,93,65,36,29.90,29.77,29.65,10,8,2,23,13,29,0.55,6,Rain,197
2013-3-12,43,39,34,36,30,27,96,80,64,30.02,29.93,29.80,10,9,2,14,9,20,0.01,8,Rain-Snow,252
2013-3-13,33,30,27,32,24,18,100,77,54,30.24,30.06,29.95,10,6,0,25,12,35,0.01,8,Fog-Snow,270
2013-3-14,41,32,22,19,18,15,77,59,40,30.31,30.24,30.17,10,10,10,18,8,23,0.00,1,,265
2013-3-15,51,39,26,38,28,19,75,63,50,30.16,29.98,29.87,10,10,8,10,6,33,0.02,3,Rain,232
2013-3-16,55,44,33,47,39,28,100,86,71,30.01,29.76,29.62,10,6,2,18,7,25,0.09,8,Rain,264
2013-3-17,37,34,30,27,25,23,85,72,59,30.20,30.13,30.03,10,10,10,17,6,31,0.00,6,,46
2013-3-18,50,41,32,48,36,24,93,81,69,30.10,29.82,29.65,10,6,2,23,11,31,0.73,8,Rain,125
2013-3-19,42,37,32,38,24,16,82,63,44,30.03,29.88,29.76,10,10,10,30,16,48,T,6,Rain,261
2013-3-20,39,31,22,19,15,11,60,50,40,30.03,29.97,29.89,10,10,10,24,11,33,0.00,4,,266
2013-3-21,30,24,18,19,12,7,77,62,46,30.00,29.95,29.92,10,10,3,16,9,22,T,7,Snow,282
2013-3-22,41,32,22,19,17,15,77,59,40,30.05,30.01,29.99,10,10,10,15,6,23,0.00,2,,272
2013-3-23,48,34,19,24,19,17,91,60,29,30.08,30.03,29.97,10,10,9,13,3,21,0.00,0,,354
2013-3-24,41,36,30,31,26,18,92,65,38,29.96,29.67,29.44,10,7,0,18,9,28,0.11,5,Fog-Snow,74
2013-3-25,35,34,32,32,31,28,96,89,82,29.83,29.54,29.39,10,5,1,13,7,17,0.26,8,Snow,243
2013-3-26,42,37,32,32,29,22,92,70,48,30.15,29.99,29.83,10,10,4,17,8,23,0.01,8,Snow,308
2013-3-27,45,39,33,29,26,21,82,63,43,30.24,30.19,30.13,10,10,7,21,11,28,T,8,Snow,286
2013-3-28,46,38,29,28,25,22,72,59,45,30.30,30.26,30.23,10,10,10,18,7,25,0.00,6,,293
2013-3-29,53,41,28,27,26,23,85,59,33,30.30,30.26,30.21,10,10,10,15,4,21,0.00,3,,263
2013-3-30,57,41,24,28,23,20,92,58,24,30.27,30.16,29.98,10,9,6,10,2,14,0.00,0,,161
2013-3-31,52,47,42,45,38,21,80,59,37,29.96,29.81,29.75,10,10,8,14,5,18,T,6,Rain,224